Airfield :
LOGIN :

Register | Disclaimer

   EN    FR    IT 

 










Legend :    VFR   Marginal VFR   IFR   Intensive IFR   Very Intensive IFR
Visi :
Ceiling :
>= 8 km
>= 3000ft
5 to 8 km
1000 to 3000 ft
1500m to 5 km
500 to 1000 ft
800 to 1500m
200 to 500 ft
< 800m
< 200 ft
Symbols :   Thunderstorms  Fog  Heavy snow  Heavy precipitations  Wind > 20 kt
SIGMETs :     Misc.  Thunderstorms  Icing  Turbulence  Mountain Waves  Volcanic Ashes






- Airport Elevation : 120 ft
- IATA code : MME


EGNV - Durham Tees valley

CURRENT METAR :
  • 231120Z 29014G25KT 9999 -RA FEW012 BKN020 06/03 Q1009

EXPIRED METARs :
  • 231050Z 27009KT 9999 FEW012 05/03 Q1008
  • 231020Z 29009KT 9999 VCSH FEW012 SCT020 05/03 Q1007
  • 230950Z 28009KT 9999 -RA FEW010 BKN028 05/04 Q1006
  • 230920Z 28006KT 9999 FEW010 BKN028 05/04 Q1005
  • 230850Z 27005KT 6000 -RA FEW010 BKN019 05/04 Q1005

TAF TAF EGNV
Valid from the 23 at 12:00 until the 23 at 21:00 UTC


231106Z 2312/2321 28014KT 9999 SCT030
TEMPO 2312/2321 29018G28KT
ATIS : +44 9012 018 111



MET'MAP, your aeronautical weather chart ! - Copyright ORBIFLY December 2007 - Disclaimer

ORBIFLY MET'MAP TEAM :

Programming & Development : Alexandra Zaïnal
Concept & original design : Baudouin d'Aumeries
Assistance for programming : Marc-Olivier Méhu
Technical & hardware support : Manuel Goepfert

Contact : metmap@orbifly.com




SOURCES & CREDITS :

   NOAA